Terminal Aerodrome Forecast
Issued by NWS

Home | Current Version | Previous Version | Text Only | Print | Product List | Glossary On
Versions: 1 2 3 4 5 6 7 8 9 10 11 12 13 14 15 16 17
000
FTUS46 KMTR 192334
TAFSNS
TAF
KSNS 192334Z 2000/2024 29012KT P6SM BKN015
      TEMPO 2000/2002 SCT016
     FM200300 31006KT P6SM BKN010
     FM200800 VRB03KT P6SM OVC006
     FM201900 30008KT P6SM SKC
     FM202200 30014KT P6SM SKC=

USA.gov is the U.S. government's official web portal to all federal, state and local government web resources and services.